BEM weather

Beni Mellal Airport
Beni Mellal, Beni Mellal Province, Morocco

Public forecast

Using degrees Celsius for public forecast. Weather courtesy of forecast.io.

Closest aviation weather report (METAR) to Beni Mellal Airport

Closest report is Mohammed V International Airport, 86.5 nm (160.3 km) NW. Retrieved 2019/10/14 00:30 UTC (15 minutes ago):

GMMN 140030Z 20008KT 9999 SCT016 19/18 Q1018 NOSIG

Aviation forecast (TAF) for Beni Mellal Airport

Forecast is more than 12 hours old.

Retrieved 2016/10/21 18:00 UTC (3 years ago):

TAF GMMD 211700Z 2118/2224 22007KT CAVOK TEMPO 2122/2124 VRB02KT CAVOK